Terminal Aerodrome Forecast
Issued by NWS Upton, NY

Home | Current Version | Previous Version | Text Only | Print | Product List | Glossary On
Versions: 1 2 3 4 5 6 7 8 9 10 11 12 13 14 15 16 17 18 19 20 21 22 23 24 25 26 27 28 29 30 31 32 33
000
FTUS41 KOKX 251152
TAFISP
TAF
KISP 251152Z 2512/2612 09017G27KT 2SM RA OVC008
     FM251600 09015G26KT 1 1/2SM RA BR OVC006
     FM251700 08013G21KT 1 1/2SM RA BR OVC006
     FM252000 02006KT 1 1/2SM -RA BR OVC007
     FM252200 VRB04KT 1 1/2SM BR OVC060
     FM252300 VRB03KT 1/2SM FG OVC090
     FM260100 00000KT 1SM BR OVC150
     FM260500 00000KT 4SM BR OVC150
     FM260800 00000KT P6SM BKN150=

USA.gov is the U.S. government's official web portal to all federal, state and local government web resources and services.